Time;durP1;ratioP1;P1;durP2;ratioP2;P2;SDS_P1;SDS_P2;PMS_P1;PMS_P2;Temp;Humidity;BMP_temperature;BMP_pressure;BME280_temperature;BME280_humidity;BME280_pressure;Samples;Min_cycle;Max_cycle;Signal;HPM_P1;HPM_P2
2021/08/06 00:02:05;;;;;;;7.72;3.13;;;;;;;15.77;94.75;97908.13;5045411;28;20221;-66
2021/08/06 00:04:31;;;;;;;4.25;2.55;;;;;;;15.78;94.57;97897.44;5062949;28;20020;-66
2021/08/06 00:06:56;;;;;;;5.10;2.75;;;;;;;15.88;94.99;97890.69;5063801;28;20032;-66
2021/08/06 00:09:21;;;;;;;9.52;3.22;;;;;;;15.89;94.95;97881.81;5060260;28;20048;-66
2021/08/06 00:11:47;;;;;;;7.28;3.33;;;;;;;16.01;94.40;97886.47;5063476;28;20051;-66
2021/08/06 00:14:13;;;;;;;11.82;3.20;;;;;;;16.13;93.91;97880.50;5061781;28;20075;-66
2021/08/06 00:16:38;;;;;;;9.02;3.25;;;;;;;16.20;93.54;97876.56;5065036;28;20079;-66
2021/08/06 00:19:03;;;;;;;5.47;2.95;;;;;;;16.32;93.10;97891.88;5064971;28;20024;-66
2021/08/06 00:21:29;;;;;;;12.15;2.95;;;;;;;16.39;92.50;97887.94;5064759;28;20084;-66
2021/08/06 00:23:55;;;;;;;8.90;2.90;;;;;;;16.46;92.29;97894.66;5062986;28;20028;-66
2021/08/06 00:26:20;;;;;;;4.05;2.40;;;;;;;16.57;91.31;97889.63;5064765;28;20025;-66
2021/08/06 00:28:46;;;;;;;4.85;2.53;;;;;;;16.53;91.26;97890.75;5052053;28;20029;-66
2021/08/06 00:31:11;;;;;;;5.32;2.60;;;;;;;16.55;91.43;97878.22;5044830;28;20029;-66
2021/08/06 00:33:37;;;;;;;6.93;3.00;;;;;;;16.67;90.96;97882.84;5044746;28;20048;-66
2021/08/06 00:36:02;;;;;;;9.23;3.20;;;;;;;16.65;90.84;97874.09;5044965;28;20025;-66
2021/08/06 00:38:28;;;;;;;7.28;2.88;;;;;;;16.73;90.73;97874.53;5044684;28;20029;-66
2021/08/06 00:40:53;;;;;;;5.25;2.90;;;;;;;16.73;90.58;97871.88;5044629;28;20021;-66
2021/08/06 00:43:19;;;;;;;11.52;3.15;;;;;;;16.77;90.84;97873.44;5044563;28;20043;-66
2021/08/06 00:45:45;;;;;;;6.75;3.03;;;;;;;16.83;90.28;97869.56;5044439;28;20091;-66
2021/08/06 00:48:10;;;;;;;5.85;3.05;;;;;;;16.83;90.77;97873.09;5044495;28;20316;-66
2021/08/06 00:50:37;;;;;;;4.32;2.63;;;;;;;16.83;90.20;97865.13;5043287;28;20022;-66
2021/08/06 00:53:02;;;;;;;6.78;2.45;;;;;;;16.84;90.19;97864.16;5044495;28;20313;-66
2021/08/06 00:55:28;;;;;;;9.88;3.83;;;;;;;16.77;91.03;97862.78;5044380;28;20021;-66
2021/08/06 00:57:53;;;;;;;8.15;2.50;;;;;;;16.83;90.06;97859.78;5044337;28;20051;-66
2021/08/06 01:00:19;;;;;;;5.93;2.45;;;;;;;16.93;89.79;97868.97;5053099;28;20045;-66
2021/08/06 01:02:56;;;;;;;5.80;3.00;;;;;;;16.93;89.73;97868.97;5064335;28;20369;-66
2021/08/06 01:05:28;;;;;;;7.70;2.78;;;;;;;16.89;90.32;97862.13;5064380;28;20024;-66
2021/08/06 01:08:04;;;;;;;5.88;3.25;;;;;;;16.88;90.37;97860.41;5063795;28;20143;-66
2021/08/06 01:10:41;;;;;;;4.70;2.60;;;;;;;16.92;90.15;97861.94;5064108;28;20036;-66
2021/08/06 01:13:09;;;;;;;6.15;2.97;;;;;;;17.05;89.38;97862.94;5062525;28;20021;-66
2021/08/06 01:15:36;;;;;;;7.93;3.08;;;;;;;17.02;89.39;97851.63;5064115;28;20050;-66
2021/08/06 01:18:04;;;;;;;5.80;3.08;;;;;;;17.06;89.51;97854.03;5063711;28;20096;-66
2021/08/06 01:20:37;;;;;;;7.82;3.00;;;;;;;16.94;89.29;97849.44;5044041;28;20332;-66
2021/08/06 01:23:07;;;;;;;5.97;3.03;;;;;;;16.93;90.13;97839.72;5044095;28;20257;-66
2021/08/06 01:25:42;;;;;;;6.75;2.80;;;;;;;16.87;90.10;97832.09;5051085;28;20025;-66
2021/08/06 01:28:08;;;;;;;5.20;3.35;;;;;;;16.86;90.54;97841.03;5063896;28;20021;-66
2021/08/06 01:30:33;;;;;;;5.13;3.42;;;;;;;16.86;90.81;97830.38;5064168;28;20197;-66
2021/08/06 01:32:59;;;;;;;6.97;3.10;;;;;;;16.82;90.54;97830.66;5062034;28;20017;-66
2021/08/06 01:35:24;;;;;;;4.25;2.75;;;;;;;16.78;90.72;97815.81;5062251;28;20020;-66
2021/08/06 01:37:50;;;;;;;4.68;2.60;;;;;;;16.77;91.31;97822.94;5043856;28;20328;-66
2021/08/06 01:40:15;;;;;;;7.30;3.05;;;;;;;16.80;91.36;97836.06;5043870;28;20022;-66
2021/08/06 01:43:03;;;;;;;5.45;3.20;;;;;;;16.82;91.62;97834.19;5043788;28;20128;-66
2021/08/06 01:45:33;;;;;;;6.28;3.15;;;;;;;16.80;92.24;97845.84;5044850;28;20060;-66
2021/08/06 01:47:59;;;;;;;5.43;2.88;;;;;;;16.80;92.69;97837.88;5043787;28;20025;-66
2021/08/06 01:50:28;;;;;;;6.28;2.90;;;;;;;16.84;91.61;97832.25;5044817;28;20020;-66
2021/08/06 01:53:02;;;;;;;7.13;3.00;;;;;;;16.82;91.48;97839.50;5043675;28;20036;-66
2021/08/06 01:55:40;;;;;;;10.68;3.17;;;;;;;16.90;90.78;97837.22;5043726;28;20344;-66
2021/08/06 01:58:09;;;;;;;5.35;2.95;;;;;;;16.90;91.04;97839.88;5043748;28;20017;-66
2021/08/06 02:00:35;;;;;;;7.00;3.00;;;;;;;16.86;91.48;97843.69;5043559;28;20088;-66
2021/08/06 02:03:01;;;;;;;11.05;3.90;;;;;;;16.78;91.76;97832.66;5042412;28;20256;-66
2021/08/06 02:05:27;;;;;;;6.50;3.05;;;;;;;16.74;92.32;97831.06;5044636;28;20041;-66
2021/08/06 02:07:52;;;;;;;5.72;3.00;;;;;;;16.70;93.02;97829.53;5044832;28;20049;-66
2021/08/06 02:10:18;;;;;;;8.02;3.72;;;;;;;16.71;93.45;97825.94;5044664;28;20024;-66
2021/08/06 02:12:44;;;;;;;7.05;3.00;;;;;;;16.67;93.46;97829.72;5043536;28;20085;-66
2021/08/06 02:15:10;;;;;;;5.40;3.05;;;;;;;16.64;93.52;97821.03;5047754;28;20320;-66
2021/08/06 02:17:37;;;;;;;4.78;3.15;;;;;;;16.60;93.73;97825.69;5063152;28;20017;-66
2021/08/06 02:20:05;;;;;;;5.80;3.28;;;;;;;16.56;94.07;97816.19;5063579;28;20025;-66
2021/08/06 02:22:32;;;;;;;5.57;3.05;;;;;;;16.52;94.18;97814.63;5063384;28;20292;-66
2021/08/06 02:24:57;;;;;;;8.68;3.50;;;;;;;16.47;94.81;97840.59;5063321;28;20321;-66
2021/08/06 02:27:25;;;;;;;6.43;3.60;;;;;;;16.52;95.04;97835.88;5063293;28;20024;-66
2021/08/06 02:29:53;;;;;;;9.63;3.97;;;;;;;16.46;95.37;97817.63;5062129;28;20066;-66
2021/08/06 02:32:19;;;;;;;7.38;3.67;;;;;;;16.48;95.21;97823.72;5048499;28;20059;-66
2021/08/06 02:34:44;;;;;;;5.63;3.40;;;;;;;16.50;95.39;97827.16;5043314;28;20052;-66
2021/08/06 02:37:10;;;;;;;8.98;3.63;;;;;;;16.58;95.22;97824.91;5060855;28;20032;-66
2021/08/06 02:39:35;;;;;;;11.82;3.88;;;;;;;16.57;94.96;97822.34;5063216;28;20083;-66
2021/08/06 02:42:03;;;;;;;10.68;3.58;;;;;;;16.56;95.07;97820.63;5063187;28;20025;-66
2021/08/06 02:44:28;;;;;;;8.63;3.85;;;;;;;16.53;95.04;97811.03;5064205;28;20312;-66
2021/08/06 02:46:54;;;;;;;6.50;3.17;;;;;;;16.58;94.79;97808.97;5066656;28;20036;-66
2021/08/06 02:49:19;;;;;;;9.48;3.42;;;;;;;16.62;94.33;97807.88;5066716;28;20317;-66
2021/08/06 02:51:45;;;;;;;6.28;3.42;;;;;;;16.66;94.08;97812.06;5066669;28;20021;-66
2021/08/06 02:54:11;;;;;;;8.68;3.10;;;;;;;16.65;94.58;97815.66;5064947;28;20031;-66
2021/08/06 02:56:36;;;;;;;7.60;3.88;;;;;;;16.65;94.62;97815.66;5066611;28;20025;-66
2021/08/06 02:59:02;;;;;;;7.38;3.75;;;;;;;16.68;94.34;97815.47;5066518;28;20028;-66
2021/08/06 03:01:27;;;;;;;7.65;3.10;;;;;;;16.65;94.56;97805.03;5066410;28;20048;-66
2021/08/06 03:03:53;;;;;;;6.70;3.10;;;;;;;16.69;94.45;97801.28;5060776;28;20017;-66
2021/08/06 03:06:18;;;;;;;5.57;3.25;;;;;;;16.61;94.58;97803.50;5046383;28;20032;-66
2021/08/06 03:08:43;;;;;;;9.68;3.40;;;;;;;16.60;95.11;97851.41;5046478;28;20313;-66
2021/08/06 03:11:09;;;;;;;5.63;3.63;;;;;;;16.60;95.17;97870.88;5045216;28;20036;-66
2021/08/06 03:13:34;;;;;;;4.40;2.90;;;;;;;16.60;95.10;97854.06;5046330;28;20248;-66
2021/08/06 03:16:00;;;;;;;10.38;3.78;;;;;;;16.55;95.16;97843.69;5046267;28;20028;-66
2021/08/06 03:18:25;;;;;;;9.07;3.88;;;;;;;16.56;95.45;97895.88;5046221;28;20316;-66
2021/08/06 03:20:51;;;;;;;8.80;3.65;;;;;;;16.52;95.64;97882.84;5046418;28;20249;-66
2021/08/06 03:23:16;;;;;;;6.47;3.55;;;;;;;16.57;95.39;97856.88;5046179;28;20324;-66
2021/08/06 03:25:41;;;;;;;11.07;3.70;;;;;;;16.56;95.59;97871.13;5044830;28;20057;-66
2021/08/06 03:28:07;;;;;;;6.20;3.72;;;;;;;16.57;95.90;97855.09;5044930;28;20025;-66
2021/08/06 03:30:33;;;;;;;7.53;3.53;;;;;;;16.57;95.72;97849.78;5044867;28;20021;-66
2021/08/06 03:32:58;;;;;;;7.60;3.63;;;;;;;16.60;95.60;97846.94;5045926;28;20033;-66
2021/08/06 03:35:24;;;;;;;7.63;3.35;;;;;;;16.66;95.43;97851.94;5062975;28;20044;-66
2021/08/06 03:37:49;;;;;;;7.15;3.60;;;;;;;16.59;95.50;97847.03;5065468;28;20047;-66
2021/08/06 03:40:15;;;;;;;9.30;3.85;;;;;;;16.57;95.41;97851.56;5045864;28;20025;-66
2021/08/06 03:42:41;;;;;;;7.28;3.47;;;;;;;16.56;95.19;97839.22;5045761;28;20025;-66
2021/08/06 03:45:07;;;;;;;9.02;3.70;;;;;;;16.58;95.34;97846.16;5045722;28;20091;-66
2021/08/06 03:47:36;;;;;;;6.35;3.38;;;;;;;16.63;95.41;97840.59;5045616;28;20022;-66
2021/08/06 03:50:03;;;;;;;7.88;4.07;;;;;;;16.66;95.23;97843.09;5045630;28;20202;-66
2021/08/06 03:52:29;;;;;;;7.25;3.58;;;;;;;16.70;95.14;97818.91;5045583;28;20066;-66
2021/08/06 03:54:54;;;;;;;7.80;3.38;;;;;;;16.70;94.44;97818.91;5059658;28;20025;-66
2021/08/06 03:57:19;;;;;;;14.15;4.57;;;;;;;16.65;94.74;97823.63;5064799;28;20024;-66
2021/08/06 03:59:45;;;;;;;7.13;3.92;;;;;;;16.67;94.93;97823.53;5065169;28;20051;-66
2021/08/06 04:02:10;;;;;;;7.35;3.92;;;;;;;16.71;94.86;97820.63;5065303;28;20025;-66
2021/08/06 04:04:36;;;;;;;8.73;3.88;;;;;;;16.71;94.73;97817.97;5065304;28;20025;-66
2021/08/06 04:07:01;;;;;;;7.53;3.75;;;;;;;16.70;94.79;97813.59;5065165;28;20371;-66
2021/08/06 04:09:26;;;;;;;8.55;4.07;;;;;;;16.65;94.46;97818.31;5065194;28;20029;-66
2021/08/06 04:11:53;;;;;;;9.63;3.78;;;;;;;16.70;94.52;97818.91;5063735;28;20049;-66
2021/08/06 04:14:18;;;;;;;8.75;3.85;;;;;;;16.63;94.66;97822.00;5064189;28;20384;-66
2021/08/06 04:16:44;;;;;;;7.82;4.03;;;;;;;16.59;94.57;97818.69;5064108;28;20347;-66
2021/08/06 04:19:10;;;;;;;7.75;3.80;;;;;;;16.60;94.87;97816.84;5054224;28;20029;-66
2021/08/06 04:21:35;;;;;;;6.60;3.85;;;;;;;16.53;94.72;97821.66;5044076;28;20036;-66
2021/08/06 04:24:00;;;;;;;7.57;3.83;;;;;;;16.64;94.91;97840.50;5043641;28;20032;-66
2021/08/06 04:26:26;;;;;;;8.50;4.07;;;;;;;16.57;94.98;97844.47;5056920;28;20021;-66
2021/08/06 04:28:51;;;;;;;8.20;3.47;;;;;;;16.60;95.11;97838.97;5062771;28;20224;-67
2021/08/06 04:31:17;;;;;;;8.02;3.78;;;;;;;16.66;95.13;97838.63;5063858;28;20031;-67
2021/08/06 04:33:42;;;;;;;6.80;3.83;;;;;;;16.75;94.97;97874.47;5063798;28;20031;-67
2021/08/06 04:36:08;;;;;;;7.75;3.58;;;;;;;16.72;95.10;97850.72;5063764;28;20044;-67
2021/08/06 04:38:33;;;;;;;9.95;3.58;;;;;;;16.71;95.17;97841.88;5061329;28;20285;-67
2021/08/06 04:40:59;;;;;;;9.82;4.07;;;;;;;16.75;95.27;97854.06;5056437;28;20013;-67
2021/08/06 04:43:24;;;;;;;13.73;3.92;;;;;;;16.72;94.81;97896.75;5062626;28;20017;-67
2021/08/06 04:45:50;;;;;;;7.40;3.63;;;;;;;16.81;94.73;97933.44;5054558;28;20047;-67
2021/08/06 04:48:23;;;;;;;9.95;4.28;;;;;;;16.81;94.68;97944.06;5044523;28;20079;-67
2021/08/06 04:50:50;;;;;;;8.57;3.47;;;;;;;16.88;94.31;97960.53;5044787;28;20339;-67
2021/08/06 04:53:15;;;;;;;11.32;4.20;;;;;;;16.85;94.47;97982.84;5044485;28;20084;-67
2021/08/06 04:55:41;;;;;;;5.38;3.25;;;;;;;16.84;94.33;98002.38;5043304;28;20025;-67
2021/08/06 04:58:07;;;;;;;6.53;3.47;;;;;;;16.90;94.59;98033.94;5044386;28;20025;-67
2021/08/06 05:00:33;;;;;;;8.75;4.32;;;;;;;16.99;94.01;98041.44;5043059;28;20147;-67
2021/08/06 05:02:58;;;;;;;8.93;3.58;;;;;;;17.00;93.70;98061.75;5044216;28;20037;-67
2021/08/06 05:05:23;;;;;;;10.85;3.90;;;;;;;17.05;94.01;98021.63;5043106;28;20025;-67
2021/08/06 05:07:54;;;;;;;7.40;2.72;;;;;;;17.02;93.98;98016.47;5043328;28;20032;-67
2021/08/06 05:10:21;;;;;;;10.75;3.83;;;;;;;17.06;93.81;98016.22;5044188;28;20255;-67
2021/08/06 05:12:47;;;;;;;10.20;3.97;;;;;;;17.02;94.14;98012.00;5044162;28;20043;-67
2021/08/06 05:15:12;;;;;;;9.10;3.58;;;;;;;17.10;94.17;98015.13;5044107;28;20320;-67
2021/08/06 05:17:38;;;;;;;8.60;3.28;;;;;;;17.16;94.14;98014.78;5044145;28;20245;-67
2021/08/06 05:20:05;;;;;;;7.50;3.80;;;;;;;17.20;93.75;98005.69;5044059;28;20021;-67
2021/08/06 05:22:31;;;;;;;7.78;3.92;;;;;;;17.22;93.65;98003.78;5043985;28;20025;-67
2021/08/06 05:24:56;;;;;;;10.13;3.97;;;;;;;17.19;94.07;98006.63;5043990;28;20029;-67
2021/08/06 05:27:22;;;;;;;7.30;3.17;;;;;;;17.26;93.89;98015.13;5043943;28;20028;-67
2021/08/06 05:29:47;;;;;;;5.75;3.20;;;;;;;17.27;94.15;98009.72;5044008;28;20021;-67
2021/08/06 05:32:13;;;;;;;8.20;3.35;;;;;;;17.31;93.78;98017.53;5043978;28;20017;-67
2021/08/06 05:34:38;;;;;;;9.80;3.78;;;;;;;17.18;93.71;97991.59;5043911;28;20021;-67
2021/08/06 05:37:03;;;;;;;7.95;3.47;;;;;;;17.25;93.54;98005.44;5044065;28;20063;-67
2021/08/06 05:39:29;;;;;;;10.52;3.35;;;;;;;17.30;93.86;97999.88;5043830;28;20017;-67
2021/08/06 05:41:54;;;;;;;7.68;3.20;;;;;;;17.27;93.68;97993.75;5042431;28;20099;-67
2021/08/06 05:44:20;;;;;;;6.45;3.47;;;;;;;17.28;93.65;98003.44;5042292;28;20025;-67
2021/08/06 05:46:45;;;;;;;8.68;3.28;;;;;;;17.25;94.04;98008.94;5043688;28;20339;-67
2021/08/06 05:49:10;;;;;;;6.45;3.22;;;;;;;17.24;94.15;98012.53;5043743;28;20041;-67
2021/08/06 05:51:36;;;;;;;6.43;3.13;;;;;;;17.21;93.89;98012.72;5043718;28;20025;-67
2021/08/06 05:54:03;;;;;;;10.13;3.30;;;;;;;17.31;94.29;98018.41;5042552;28;20049;-67
2021/08/06 05:56:29;;;;;;;8.57;2.72;;;;;;;17.39;93.32;98021.47;5043725;28;20040;-67
2021/08/06 05:58:54;;;;;;;6.80;2.63;;;;;;;17.49;92.72;98011.22;5043670;28;20316;-67
2021/08/06 06:01:19;;;;;;;8.60;2.78;;;;;;;17.66;92.10;98013.75;5042363;28;20037;-67
2021/08/06 06:03:45;;;;;;;8.68;2.85;;;;;;;17.67;92.29;98007.50;5043565;28;20025;-67
2021/08/06 06:06:10;;;;;;;6.22;2.78;;;;;;;17.82;91.90;98028.78;5043515;28;20021;-67
2021/08/06 06:08:36;;;;;;;6.70;2.78;;;;;;;17.80;92.24;98016.47;5043578;28;20026;-67
2021/08/06 06:11:01;;;;;;;8.27;2.85;;;;;;;17.81;91.57;98012.91;5043570;28;20085;-67
2021/08/06 06:13:26;;;;;;;9.25;3.13;;;;;;;17.64;91.09;98002.34;5043543;28;20022;-67
2021/08/06 06:15:52;;;;;;;8.43;2.78;;;;;;;17.62;91.42;98014.91;5043541;28;20041;-67
2021/08/06 06:18:17;;;;;;;8.30;2.75;;;;;;;17.77;91.38;98011.31;5043504;28;20092;-67
2021/08/06 06:20:43;;;;;;;10.65;2.72;;;;;;;17.83;90.39;98005.66;5046545;28;20109;-67
2021/08/06 06:23:08;;;;;;;9.15;2.83;;;;;;;17.68;91.13;97998.56;5047298;28;20031;-67
2021/08/06 06:25:33;;;;;;;11.75;3.80;;;;;;;17.81;90.74;98007.56;5047130;28;20017;-67
2021/08/06 06:28:04;;;;;;;10.27;3.67;;;;;;;18.03;90.50;98013.34;5047167;28;20025;-67
2021/08/06 06:30:31;;;;;;;9.43;2.72;;;;;;;18.63;88.51;98041.66;5047201;28;20029;-67
2021/08/06 06:32:58;;;;;;;8.65;2.95;;;;;;;18.93;88.10;98045.13;5047079;28;20036;-67
2021/08/06 06:35:24;;;;;;;4.97;2.60;;;;;;;19.55;84.52;98054.56;5047007;28;20021;-67
2021/08/06 06:37:50;;;;;;;11.38;2.42;;;;;;;20.58;79.42;98070.75;5047003;28;20198;-67
2021/08/06 06:40:17;;;;;;;6.13;2.13;;;;;;;20.98;79.40;98077.78;5046925;28;20049;-67
2021/08/06 06:42:44;;;;;;;7.45;2.38;;;;;;;21.04;79.60;98069.34;5046894;28;20316;-67
2021/08/06 06:45:09;;;;;;;7.32;2.50;;;;;;;20.65;77.24;98051.53;5046882;28;20022;-67
2021/08/06 06:47:40;;;;;;;8.32;2.38;;;;;;;20.26;78.78;98042.69;5046754;28;20025;-67
2021/08/06 06:50:09;;;;;;;6.97;2.40;;;;;;;19.95;80.38;98041.16;5046796;28;20068;-67
2021/08/06 06:52:35;;;;;;;9.05;2.25;;;;;;;19.71;82.47;98028.56;5046704;28;20048;-67
2021/08/06 06:55:01;;;;;;;8.93;2.30;;;;;;;19.81;81.72;98030.56;5046665;28;20028;-67
2021/08/06 06:57:26;;;;;;;6.30;2.00;;;;;;;19.95;81.70;98041.16;5046626;28;20021;-67
2021/08/06 06:59:53;;;;;;;6.10;2.17;;;;;;;21.30;77.62;98087.09;5046478;28;20056;-67
2021/08/06 07:02:19;;;;;;;6.35;2.13;;;;;;;21.59;74.53;98218.91;5046545;28;20084;-67
2021/08/06 07:04:44;;;;;;;7.57;1.75;;;;;;;21.41;77.17;98099.72;5046473;28;20022;-67
2021/08/06 07:07:10;;;;;;;15.00;2.08;;;;;;;21.09;75.39;98097.47;5046419;28;20029;-67
2021/08/06 07:09:35;;;;;;;13.63;2.15;;;;;;;21.26;76.31;98102.50;5046400;28;20022;-67
2021/08/06 07:12:00;;;;;;;7.95;2.30;;;;;;;21.24;74.80;98069.63;5045209;28;20384;-67
2021/08/06 07:14:26;;;;;;;5.53;1.80;;;;;;;21.04;75.92;98059.47;5046305;28;20032;-67
2021/08/06 07:16:51;;;;;;;6.82;1.92;;;;;;;20.26;78.11;98032.84;5046290;28;20029;-67
2021/08/06 07:19:16;;;;;;;8.48;2.38;;;;;;;20.25;78.02;98040.97;5046274;28;20388;-67
2021/08/06 07:21:46;;;;;;;8.07;2.10;;;;;;;19.70;79.02;98029.50;5046204;28;20032;-67
2021/08/06 07:24:11;;;;;;;6.93;2.58;;;;;;;19.74;80.17;98039.88;5046158;28;20047;-67
2021/08/06 07:26:37;;;;;;;10.02;2.72;;;;;;;19.70;80.14;98043.72;5046032;28;20034;-67
2021/08/06 07:29:02;;;;;;;13.23;2.65;;;;;;;19.55;81.78;98050.06;5046030;28;20047;-67
2021/08/06 07:31:28;;;;;;;8.93;2.30;;;;;;;19.33;82.38;98028.34;5045032;28;20025;-67
2021/08/06 07:33:53;;;;;;;9.88;2.63;;;;;;;19.53;80.20;98051.97;5045933;28;20420;-66
2021/08/06 07:36:19;;;;;;;6.15;2.30;;;;;;;19.44;81.05;98041.03;5045910;28;20092;-66
2021/08/06 07:38:44;;;;;;;7.35;2.55;;;;;;;19.44;81.11;98041.03;5045908;28;20025;-66
2021/08/06 07:41:09;;;;;;;8.40;2.80;;;;;;;19.18;82.08;98029.31;5044703;28;20037;-66
2021/08/06 07:43:35;;;;;;;5.10;2.20;;;;;;;19.14;82.25;98038.44;5045760;28;20025;-66
2021/08/06 07:46:00;;;;;;;8.85;2.40;;;;;;;18.88;82.25;98047.22;5045644;28;20344;-66
2021/08/06 07:48:26;;;;;;;8.15;2.10;;;;;;;18.93;82.92;98043.34;5045674;28;20084;-66
2021/08/06 07:50:51;;;;;;;6.80;2.13;;;;;;;18.82;83.58;98036.94;5045642;28;20029;-66
2021/08/06 07:53:17;;;;;;;7.78;2.03;;;;;;;18.89;82.08;98038.28;5045602;28;20028;-66
2021/08/06 07:55:42;;;;;;;6.65;2.53;;;;;;;18.91;83.33;98034.56;5045576;28;20025;-66
2021/08/06 07:58:07;;;;;;;8.20;2.53;;;;;;;18.91;81.68;98042.56;5045489;28;20352;-66
2021/08/06 08:00:33;;;;;;;6.00;1.95;;;;;;;18.84;82.79;98046.56;5045258;28;20051;-66
2021/08/06 08:02:58;;;;;;;4.45;1.92;;;;;;;18.86;83.37;98047.31;5045331;28;20040;-66
2021/08/06 08:05:24;;;;;;;7.78;2.00;;;;;;;18.96;82.98;98055.63;5045375;28;20025;-66
2021/08/06 08:07:50;;;;;;;7.13;2.42;;;;;;;18.94;82.13;98046.84;5045226;28;20064;-66
2021/08/06 08:10:15;;;;;;;7.15;2.35;;;;;;;18.79;82.27;98042.44;5045264;28;20220;-66
2021/08/06 08:12:40;;;;;;;4.85;1.98;;;;;;;18.83;83.28;98046.66;5045282;28;20053;-66
2021/08/06 08:15:07;;;;;;;4.60;1.73;;;;;;;18.89;83.17;98048.97;5045166;28;20071;-66
2021/08/06 08:17:33;;;;;;;8.98;2.55;;;;;;;18.84;82.94;98051.03;5045082;28;20197;-66
2021/08/06 08:19:58;;;;;;;6.28;2.17;;;;;;;18.96;83.75;98058.28;5045090;28;20026;-66
2021/08/06 08:22:24;;;;;;;7.60;2.47;;;;;;;19.15;82.66;98056.19;5045033;28;20221;-66
2021/08/06 08:24:49;;;;;;;7.88;2.13;;;;;;;19.14;82.35;98055.31;5044961;28;20048;-66
2021/08/06 08:27:17;;;;;;;7.88;2.17;;;;;;;19.45;83.13;98064.09;5044838;28;20033;-66
2021/08/06 08:29:45;;;;;;;7.38;1.95;;;;;;;20.49;79.11;98088.28;5044897;28;20028;-67
2021/08/06 08:32:13;;;;;;;7.40;1.98;;;;;;;21.72;75.57;98113.47;5044835;28;20025;-67
2021/08/06 08:34:38;;;;;;;7.63;2.00;;;;;;;22.20;71.91;98117.94;5043641;28;20029;-67
2021/08/06 08:37:03;;;;;;;7.93;1.80;;;;;;;22.29;71.44;98111.91;5044809;28;20399;-67
2021/08/06 08:39:29;;;;;;;7.78;2.17;;;;;;;21.67;72.76;98091.50;5044756;28;20025;-67
2021/08/06 08:41:56;;;;;;;7.38;2.22;;;;;;;21.22;74.22;98089.44;5044514;28;20088;-67
2021/08/06 08:44:22;;;;;;;8.30;1.90;;;;;;;20.97;74.29;98084.94;5044644;28;20324;-67
2021/08/06 08:46:49;;;;;;;7.97;1.70;;;;;;;20.80;74.52;98074.53;5044532;28;20059;-67
2021/08/06 08:49:15;;;;;;;6.40;1.70;;;;;;;21.00;74.03;98090.09;5044563;28;20062;-67
2021/08/06 08:51:41;;;;;;;5.85;1.90;;;;;;;21.39;73.67;98091.78;5044498;28;20083;-67
2021/08/06 08:54:07;;;;;;;9.30;2.35;;;;;;;22.71;70.06;98140.03;5044458;28;20025;-67
2021/08/06 08:56:32;;;;;;;5.38;1.50;;;;;;;24.05;65.63;98146.41;5044416;28;20025;-67
2021/08/06 08:58:58;;;;;;;13.02;1.98;;;;;;;24.44;63.02;98156.56;5044373;28;20341;-67
2021/08/06 09:01:24;;;;;;;7.78;1.65;;;;;;;24.39;62.43;98126.47;5044165;28;20372;-67
2021/08/06 09:03:50;;;;;;;10.25;2.08;;;;;;;24.85;61.52;98143.22;5044239;28;20052;-67
2021/08/06 09:06:16;;;;;;;9.32;1.50;;;;;;;24.83;60.62;98125.47;5044226;28;20240;-67
2021/08/06 09:08:42;;;;;;;4.38;1.17;;;;;;;25.16;60.23;98133.41;5044224;28;20033;-67
2021/08/06 09:11:29;;;;;;;4.90;1.42;;;;;;;25.09;59.73;98116.06;5044203;28;20084;-67
2021/08/06 09:14:14;;;;;;;3.78;1.90;;;;;;;25.06;60.22;98111.75;5044152;28;20028;-67
2021/08/06 09:17:12;;;;;;;8.10;1.20;;;;;;;23.86;61.14;98070.88;5044141;28;20332;-67
2021/08/06 09:19:44;;;;;;;3.47;1.45;;;;;;;23.22;64.44;98050.09;5044085;28;20029;-67
2021/08/06 09:22:17;;;;;;;7.07;1.27;;;;;;;22.79;65.75;98047.28;5044093;28;20025;-67
2021/08/06 09:25:06;;;;;;;8.23;1.73;;;;;;;22.26;66.22;98041.56;5044040;28;20029;-67
2021/08/06 09:27:37;;;;;;;9.60;2.30;;;;;;;21.69;67.94;98024.44;5043936;28;20337;-67
2021/08/06 09:30:15;;;;;;;5.32;1.20;;;;;;;21.56;70.00;98026.28;5043970;28;20081;-67
2021/08/06 09:32:52;;;;;;;5.25;1.65;;;;;;;20.97;72.88;98020.75;5043989;28;20049;-67
2021/08/06 09:35:20;;;;;;;9.32;2.13;;;;;;;20.71;73.17;98016.34;5043927;28;20029;-67
2021/08/06 09:37:46;;;;;;;5.90;1.50;;;;;;;20.57;73.67;98021.75;5043862;28;20068;-67
2021/08/06 09:40:16;;;;;;;2.80;0.90;;;;;;;19.57;75.79;97992.09;5043847;28;20025;-67
2021/08/06 09:42:56;;;;;;;3.63;0.85;;;;;;;18.47;80.13;97979.59;5043830;28;20333;-67
2021/08/06 09:45:25;;;;;;;20.88;2.00;;;;;;;18.04;83.62;98246.75;5042672;28;20310;-67
2021/08/06 09:47:57;;;;;;;8.50;2.03;;;;;;;17.51;87.12;98164.50;5043702;28;20303;-67
2021/08/06 09:50:43;;;;;;;9.38;1.75;;;;;;;17.68;88.89;98182.22;5043769;28;20026;-67
2021/08/06 09:53:09;;;;;;;8.25;1.83;;;;;;;17.77;87.94;98129.31;5043814;28;20024;-66
2021/08/06 09:55:43;;;;;;;6.13;1.40;;;;;;;17.95;87.73;98111.44;5046725;28;20021;-66
2021/08/06 09:58:14;;;;;;;8.05;1.88;;;;;;;17.99;87.55;98113.84;5047747;28;20021;-66
2021/08/06 10:00:46;;;;;;;10.20;2.17;;;;;;;18.06;87.24;98114.34;5047632;28;20044;-66
2021/08/06 10:03:44;;;;;;;6.70;1.92;;;;;;;18.75;87.15;98126.25;5047654;28;20251;-66
2021/08/06 10:06:09;;;;;;;6.40;1.80;;;;;;;20.97;83.36;98135.78;5057414;28;20320;-66
2021/08/06 10:08:35;;;;;;;10.80;1.50;;;;;;;21.89;78.52;98139.91;5046394;28;20144;-67
2021/08/06 10:11:00;;;;;;;2.92;1.02;;;;;;;22.55;78.42;98132.31;5047478;28;20049;-67
2021/08/06 10:13:27;;;;;;;7.53;1.95;;;;;;;23.46;75.41;98144.03;5047459;28;20029;-67
2021/08/06 10:15:52;;;;;;;3.88;1.73;;;;;;;22.34;71.95;98074.88;5047383;28;20021;-67
2021/08/06 10:18:18;;;;;;;9.93;1.40;;;;;;;21.93;74.08;98070.91;5047373;28;20032;-67
2021/08/06 10:20:47;;;;;;;10.20;1.35;;;;;;;21.22;75.66;98039.44;5047370;28;20028;-67
2021/08/06 10:23:13;;;;;;;2.50;1.10;;;;;;;21.22;75.05;98047.47;5047281;28;20025;-67
2021/08/06 10:25:39;;;;;;;6.57;1.38;;;;;;;21.36;75.50;98051.84;5053608;28;20028;-67
2021/08/06 10:28:05;;;;;;;6.43;1.55;;;;;;;20.88;76.44;98037.41;5059002;28;20327;-67
2021/08/06 10:30:33;;;;;;;6.78;1.58;;;;;;;21.33;76.02;98053.88;5062250;28;20048;-67
2021/08/06 10:33:26;;;;;;;8.68;1.63;;;;;;;22.91;73.31;98083.03;5058901;28;20029;-67
2021/08/06 10:35:54;;;;;;;11.65;2.00;;;;;;;23.50;70.08;98087.25;5050299;28;20193;-67
2021/08/06 10:38:34;;;;;;;4.38;1.27;;;;;;;23.32;67.98;98082.50;5049199;28;20101;-67
2021/08/06 10:41:01;;;;;;;3.88;1.10;;;;;;;22.91;68.23;98056.19;5051539;28;20017;-67
2021/08/06 10:43:33;;;;;;;6.13;1.10;;;;;;;23.05;64.50;98058.63;5050325;28;20025;-67
2021/08/06 10:45:59;;;;;;;2.22;0.98;;;;;;;22.43;66.96;98033.94;5045287;28;20022;-67
2021/08/06 10:48:30;;;;;;;2.85;1.10;;;;;;;22.39;68.32;98042.34;5048824;28;20053;-67
2021/08/06 10:51:14;;;;;;;2.03;0.82;;;;;;;22.11;65.30;98026.66;5051976;28;20020;-67
2021/08/06 10:53:42;;;;;;;2.13;0.60;;;;;;;21.99;66.98;98027.56;5060863;28;20305;-67
2021/08/06 10:56:16;;;;;;;4.13;0.90;;;;;;;22.26;67.61;98030.84;5060821;28;20043;-67
2021/08/06 10:58:51;;;;;;;1.75;0.57;;;;;;;22.83;64.98;98053.22;5060128;28;20122;-67
2021/08/06 11:01:25;;;;;;;5.97;0.80;;;;;;;23.11;65.56;98225.50;5062015;28;20362;-67
2021/08/06 11:03:56;;;;;;;1.83;0.60;;;;;;;22.92;64.81;98107.06;5057333;28;20217;-67
2021/08/06 11:06:47;;;;;;;5.75;0.95;;;;;;;22.04;68.01;98071.81;5057889;28;20256;-67
2021/08/06 11:09:25;;;;;;;4.90;0.70;;;;;;;21.42;70.48;98070.13;5060632;28;20020;-67
2021/08/06 11:12:11;;;;;;;3.20;1.13;;;;;;;21.00;71.53;98052.63;5059762;28;20107;-67
2021/08/06 11:14:39;;;;;;;3.40;0.90;;;;;;;20.82;71.77;98040.50;5047681;28;20017;-67
2021/08/06 11:17:20;;;;;;;6.55;0.80;;;;;;;20.83;72.25;98036.88;5048739;28;20076;-67
2021/08/06 11:19:45;;;;;;;3.08;1.10;;;;;;;20.54;72.54;98016.63;5048684;28;20026;-67
2021/08/06 11:22:23;;;;;;;3.30;1.02;;;;;;;20.31;73.26;98022.69;5048772;28;20088;-68
2021/08/06 11:24:55;;;;;;;4.35;0.93;;;;;;;20.30;71.40;98022.78;5050464;28;20050;-67
2021/08/06 11:27:32;;;;;;;2.58;1.17;;;;;;;20.40;71.72;98019.41;5055173;28;20083;-67
2021/08/06 11:30:03;;;;;;;3.55;0.85;;;;;;;20.38;70.35;98010.63;5059162;28;20136;-67
2021/08/06 11:32:31;;;;;;;5.20;1.50;;;;;;;20.27;71.42;97999.81;5048538;28;20243;-67
2021/08/06 11:34:59;;;;;;;2.10;0.70;;;;;;;20.15;72.45;98007.81;5058193;28;20031;-67